createdAt,value
2018-02-20T00:01:42.004Z,101208.00
2018-02-20T00:04:07.947Z,101203.57
2018-02-20T00:06:33.903Z,101203.19
2018-02-20T00:08:59.862Z,101203.16
2018-02-20T00:11:25.824Z,101203.34
2018-02-20T00:13:51.766Z,101200.93
2018-02-20T00:16:17.738Z,101196.98
2018-02-20T00:18:43.685Z,101196.56
2018-02-20T00:21:09.667Z,101197.20
2018-02-20T00:23:35.693Z,101192.69
2018-02-20T00:26:01.639Z,101187.23
2018-02-20T00:28:27.601Z,101180.80
2018-02-20T00:30:53.557Z,101181.66
2018-02-20T00:33:19.543Z,101185.13
2018-02-20T00:35:45.514Z,101184.41
2018-02-20T00:38:11.470Z,101183.70
2018-02-20T00:40:37.421Z,101184.30
2018-02-20T00:43:03.367Z,101182.30
2018-02-20T00:45:29.319Z,101177.83
2018-02-20T00:47:55.296Z,101173.46
2018-02-20T00:50:21.246Z,101170.48
2018-02-20T00:52:47.201Z,101168.31
2018-02-20T00:55:13.173Z,101165.06
2018-02-20T00:57:39.128Z,101164.59
2018-02-20T01:00:05.106Z,101170.38
2018-02-20T01:02:31.068Z,101170.19
2018-02-20T01:04:57.079Z,101167.52
2018-02-20T01:07:23.038Z,101164.80
2018-02-20T01:09:49.017Z,101155.52
2018-02-20T01:12:14.984Z,101156.42
2018-02-20T01:14:40.935Z,101153.70
2018-02-20T01:17:06.879Z,101155.36
2018-02-20T01:19:32.871Z,101157.59
2018-02-20T01:21:58.841Z,101167.62
2018-02-20T01:24:24.801Z,101162.93
2018-02-20T01:26:50.779Z,101168.27
2018-02-20T01:29:16.742Z,101173.88
2018-02-20T01:31:42.700Z,101168.98
2018-02-20T01:34:08.695Z,101177.91
2018-02-20T01:36:34.688Z,101179.67
2018-02-20T01:39:00.902Z,101180.72
2018-02-20T01:41:26.873Z,101181.25
2018-02-20T01:43:52.924Z,101179.14
2018-02-20T01:46:18.889Z,101185.80
2018-02-20T01:48:44.845Z,101177.08
2018-02-20T01:51:10.817Z,101178.35
2018-02-20T01:53:36.770Z,101180.84
2018-02-20T01:56:02.734Z,101183.55
2018-02-20T01:58:28.728Z,101181.19
2018-02-20T02:00:54.728Z,101176.63
2018-02-20T02:03:20.706Z,101172.82
2018-02-20T02:05:46.649Z,101164.48
2018-02-20T02:08:12.640Z,101162.70
2018-02-20T02:10:38.588Z,101161.88
2018-02-20T02:13:04.555Z,101162.55
2018-02-20T02:15:30.513Z,101162.14
2018-02-20T02:17:56.459Z,101158.11
2018-02-20T02:20:22.440Z,101159.66
2018-02-20T02:22:48.432Z,101153.37
2018-02-20T02:25:14.415Z,101157.70
2018-02-20T02:27:40.390Z,101157.05
2018-02-20T02:30:06.344Z,101161.16
2018-02-20T02:32:32.327Z,101166.05
2018-02-20T02:34:58.305Z,101161.58
2018-02-20T02:37:24.526Z,101165.87
2018-02-20T02:39:50.485Z,101160.27
2018-02-20T02:42:16.436Z,101168.02
2018-02-20T02:44:42.429Z,101169.70
2018-02-20T02:47:08.377Z,101174.97
2018-02-20T02:49:34.351Z,101175.23
2018-02-20T02:52:00.318Z,101179.11
2018-02-20T02:54:26.317Z,101181.33
2018-02-20T02:56:52.264Z,101182.30
2018-02-20T02:59:18.214Z,101176.48
2018-02-20T03:01:44.263Z,101181.59
2018-02-20T03:04:10.184Z,101185.95
2018-02-20T03:06:36.138Z,101182.95
2018-02-20T03:09:02.102Z,101183.28
2018-02-20T03:11:28.061Z,101184.87
2018-02-20T03:13:54.026Z,101189.27
2018-02-20T03:16:19.986Z,101181.86
2018-02-20T03:18:45.938Z,101182.58
2018-02-20T03:21:11.886Z,101186.45
2018-02-20T03:23:37.864Z,101190.73
2018-02-20T03:26:03.824Z,101188.78
2018-02-20T03:28:29.769Z,101188.55
2018-02-20T03:30:55.730Z,101186.18
2018-02-20T03:33:21.679Z,101187.05
2018-02-20T03:35:47.651Z,101183.92
2018-02-20T03:38:13.605Z,101183.33
2018-02-20T03:40:39.578Z,101185.17
2018-02-20T03:43:05.521Z,101189.16
2018-02-20T03:45:31.490Z,101188.13
2018-02-20T03:47:57.449Z,101184.90
2018-02-20T03:50:23.430Z,101188.91
2018-02-20T03:52:49.378Z,101185.70
2018-02-20T03:55:15.359Z,101191.56
2018-02-20T03:57:41.314Z,101197.67
2018-02-20T04:00:07.292Z,101203.77
2018-02-20T04:02:33.256Z,101204.09
2018-02-20T04:04:59.218Z,101210.77
2018-02-20T04:07:25.235Z,101207.03
2018-02-20T04:09:51.184Z,101195.41
2018-02-20T04:12:17.268Z,101199.45
2018-02-20T04:14:43.214Z,101204.92
2018-02-20T04:17:09.193Z,101207.94
2018-02-20T04:19:35.170Z,101209.67
2018-02-20T04:22:01.150Z,101210.59
2018-02-20T04:24:27.120Z,101207.44
2018-02-20T04:26:53.147Z,101211.89
2018-02-20T04:29:19.146Z,101214.11
2018-02-20T04:31:45.110Z,101217.28
2018-02-20T04:34:11.113Z,101216.06
2018-02-20T04:36:37.105Z,101222.12
2018-02-20T04:39:03.084Z,101222.53
2018-02-20T04:41:29.102Z,101225.08
2018-02-20T04:43:55.063Z,101224.00
2018-02-20T04:46:21.037Z,101224.09
2018-02-20T04:48:46.988Z,101222.95
2018-02-20T04:51:12.982Z,101221.44
2018-02-20T04:53:38.978Z,101221.02
2018-02-20T04:56:04.915Z,101220.94
2018-02-20T04:58:30.870Z,101222.97
2018-02-20T05:00:56.845Z,101222.00
2018-02-20T05:03:22.797Z,101217.89
2018-02-20T05:05:48.773Z,101213.28
2018-02-20T05:08:14.742Z,101216.41
2018-02-20T05:10:40.750Z,101222.28
2018-02-20T05:13:06.735Z,101227.97
2018-02-20T05:15:32.694Z,101218.71
2018-02-20T05:17:58.645Z,101226.20
2018-02-20T05:20:24.618Z,101228.02
2018-02-20T05:22:50.598Z,101219.24
2018-02-20T05:25:16.550Z,101222.00
2018-02-20T05:27:42.502Z,101224.29
2018-02-20T05:30:08.463Z,101225.68
2018-02-20T05:32:34.413Z,101223.00
2018-02-20T05:35:00.369Z,101219.13
2018-02-20T05:37:26.345Z,101208.86
2018-02-20T05:39:52.312Z,101220.56
2018-02-20T05:42:18.336Z,101212.28
2018-02-20T05:44:44.303Z,101211.98
2018-02-20T05:47:10.264Z,101223.14
2018-02-20T05:49:36.230Z,101222.99
2018-02-20T05:52:02.174Z,101217.34
2018-02-20T05:54:28.135Z,101229.33
2018-02-20T05:56:54.132Z,101226.31
2018-02-20T05:59:20.081Z,101232.52
2018-02-20T06:01:46.050Z,101234.56
2018-02-20T06:04:12.041Z,101237.77
2018-02-20T06:06:37.981Z,101239.34
2018-02-20T06:09:03.977Z,101242.72
2018-02-20T06:11:29.962Z,101242.88
2018-02-20T06:13:55.918Z,101247.90
2018-02-20T06:16:21.882Z,101243.41
2018-02-20T06:18:47.846Z,101241.41
2018-02-20T06:21:13.827Z,101246.08
2018-02-20T06:23:39.794Z,101247.48
2018-02-20T06:26:05.795Z,101246.63
2018-02-20T06:28:31.763Z,101242.63
2018-02-20T06:30:57.735Z,101241.34
2018-02-20T06:33:23.692Z,101237.80
2018-02-20T06:35:49.671Z,101246.36
2018-02-20T06:38:15.637Z,101244.02
2018-02-20T06:40:41.593Z,101245.25
2018-02-20T06:43:07.552Z,101244.91
2018-02-20T06:45:33.501Z,101236.86
2018-02-20T06:47:59.476Z,101236.67
2018-02-20T06:50:25.440Z,101237.31
2018-02-20T06:52:51.418Z,101231.25
2018-02-20T06:55:17.385Z,101227.68
2018-02-20T06:57:43.339Z,101231.55
2018-02-20T07:00:09.357Z,101232.67
2018-02-20T07:02:35.338Z,101239.05
2018-02-20T07:05:01.298Z,101233.20
2018-02-20T07:07:27.311Z,101238.11
2018-02-20T07:09:53.262Z,101240.85
2018-02-20T07:12:19.344Z,101238.25
2018-02-20T07:14:45.305Z,101235.50
2018-02-20T07:17:11.253Z,101238.78
2018-02-20T07:19:37.242Z,101234.72
2018-02-20T07:22:03.211Z,101243.81
2018-02-20T07:24:29.158Z,101250.72
2018-02-20T07:26:55.099Z,101252.80
2018-02-20T07:29:21.072Z,101260.37
2018-02-20T07:31:47.039Z,101262.89
2018-02-20T07:34:13.013Z,101253.81
2018-02-20T07:36:39.003Z,101260.52
2018-02-20T07:39:04.991Z,101259.70
2018-02-20T07:41:30.955Z,101262.84
2018-02-20T07:43:56.949Z,101262.47
2018-02-20T07:46:22.892Z,101265.70
2018-02-20T07:48:48.855Z,101267.28
2018-02-20T07:51:14.816Z,101261.97
2018-02-20T07:53:40.758Z,101271.58
2018-02-20T07:56:06.721Z,101272.90
2018-02-20T07:58:32.723Z,101270.67
2018-02-20T08:00:58.685Z,101278.36
2018-02-20T08:03:24.650Z,101277.16
2018-02-20T08:05:50.626Z,101280.76
2018-02-20T08:08:16.594Z,101281.55
2018-02-20T08:10:42.609Z,101281.86
2018-02-20T08:13:08.554Z,101282.02
2018-02-20T08:15:34.538Z,101282.98
2018-02-20T08:18:00.477Z,101280.87
2018-02-20T08:20:26.444Z,101278.96
2018-02-20T08:22:52.403Z,101274.10
2018-02-20T08:25:18.350Z,101277.53
2018-02-20T08:27:44.393Z,101275.60
2018-02-20T08:30:10.370Z,101282.12
2018-02-20T08:32:36.361Z,101278.20
2018-02-20T08:35:02.319Z,101279.11
2018-02-20T08:37:28.416Z,101284.37
2018-02-20T08:39:54.369Z,101276.02
2018-02-20T08:42:20.377Z,101276.73
2018-02-20T08:44:46.343Z,101278.08
2018-02-20T08:47:12.317Z,101278.09
2018-02-20T08:49:38.290Z,101270.33
2018-02-20T08:52:04.244Z,101277.79
2018-02-20T08:54:30.341Z,101271.13
2018-02-20T08:56:56.277Z,101271.43
2018-02-20T08:59:22.262Z,101269.15
2018-02-20T09:01:48.208Z,101271.35
2018-02-20T09:04:14.187Z,101271.35
2018-02-20T09:06:40.166Z,101271.40
2018-02-20T09:09:06.148Z,101272.98
2018-02-20T09:11:32.099Z,101267.96
2018-02-20T09:13:58.066Z,101268.44
2018-02-20T09:16:24.043Z,101272.56
2018-02-20T09:18:50.006Z,101272.54
2018-02-20T09:21:16.035Z,101274.23
2018-02-20T09:23:42.090Z,101267.65
2018-02-20T09:26:08.058Z,101268.92
2018-02-20T09:28:34.019Z,101271.80
2018-02-20T09:30:59.983Z,101262.92
2018-02-20T09:33:25.950Z,101261.23
2018-02-20T09:35:51.911Z,101262.82
2018-02-20T09:38:17.870Z,101262.92
2018-02-20T09:40:43.818Z,101262.78
2018-02-20T09:43:09.798Z,101262.12
2018-02-20T09:45:36.698Z,101263.73
2018-02-20T09:48:02.662Z,101270.59
2018-02-20T09:50:28.648Z,101264.19
2018-02-20T09:52:54.586Z,101263.04
2018-02-20T09:55:20.531Z,101258.67
2018-02-20T09:57:46.487Z,101256.92
2018-02-20T10:00:12.447Z,101263.95
2018-02-20T10:02:38.599Z,101261.70
2018-02-20T10:05:04.567Z,101268.59
2018-02-20T10:07:30.770Z,101261.95
2018-02-20T10:09:56.828Z,101262.41
2018-02-20T10:12:22.812Z,101265.55
2018-02-20T10:14:48.802Z,101265.02
2018-02-20T10:17:14.788Z,101267.22
2018-02-20T10:19:40.731Z,101267.85
2018-02-20T10:22:06.972Z,101269.86
2018-02-20T10:24:32.952Z,101267.69
2018-02-20T10:26:58.938Z,101275.08
2018-02-20T10:29:24.911Z,101276.11
2018-02-20T10:31:50.893Z,101276.59
2018-02-20T10:34:16.851Z,101275.35
2018-02-20T10:36:42.823Z,101274.56
2018-02-20T10:39:08.787Z,101275.30
2018-02-20T10:41:34.733Z,101277.58
2018-02-20T10:44:00.694Z,101272.76
2018-02-20T10:46:26.664Z,101269.39
2018-02-20T10:48:52.662Z,101273.47
2018-02-20T10:51:18.614Z,101277.06
2018-02-20T10:53:44.582Z,101276.96
2018-02-20T10:56:10.546Z,101280.89
2018-02-20T10:58:36.546Z,101276.50
2018-02-20T11:01:02.536Z,101278.74
2018-02-20T11:03:28.495Z,101281.83
2018-02-20T11:05:54.508Z,101277.63
2018-02-20T11:08:20.470Z,101280.14
2018-02-20T11:10:46.447Z,101276.47
2018-02-20T11:13:12.431Z,101277.94
2018-02-20T11:15:38.418Z,101280.63
2018-02-20T11:18:04.427Z,101284.48
2018-02-20T11:20:30.417Z,101279.19
2018-02-20T11:22:56.400Z,101276.77
2018-02-20T11:25:22.360Z,101275.00
2018-02-20T11:27:48.456Z,101278.23
2018-02-20T11:30:14.414Z,101282.88
2018-02-20T11:32:40.390Z,101276.25
2018-02-20T11:35:06.397Z,101274.80
2018-02-20T11:37:32.346Z,101269.22
2018-02-20T11:39:58.322Z,101270.98
2018-02-20T11:42:24.271Z,101262.53
2018-02-20T11:44:50.223Z,101258.02
2018-02-20T11:47:16.191Z,101254.54
2018-02-20T11:49:42.237Z,101252.78
2018-02-20T11:52:08.203Z,101253.08
2018-02-20T11:54:34.156Z,101255.94
2018-02-20T11:57:00.183Z,101257.27
2018-02-20T11:59:26.163Z,101254.92
2018-02-20T12:01:52.101Z,101250.31
2018-02-20T12:04:18.106Z,101245.52
2018-02-20T12:06:44.106Z,101243.59
2018-02-20T12:09:10.067Z,101238.95
2018-02-20T12:11:36.033Z,101241.86
2018-02-20T12:14:02.102Z,101246.60
2018-02-20T12:16:28.012Z,101245.01
2018-02-20T12:18:53.971Z,101242.03
2018-02-20T12:21:19.993Z,101240.61
2018-02-20T12:23:45.953Z,101239.15
2018-02-20T12:26:12.172Z,101241.17
2018-02-20T12:28:38.207Z,101235.05
2018-02-20T12:31:04.198Z,101240.20
2018-02-20T12:33:30.150Z,101239.38
2018-02-20T12:35:56.143Z,101247.31
2018-02-20T12:38:22.363Z,101240.34
2018-02-20T12:40:48.360Z,101240.97
2018-02-20T12:43:14.326Z,101230.58
2018-02-20T12:45:40.322Z,101217.32
2018-02-20T12:48:06.434Z,101217.14
2018-02-20T12:50:32.393Z,101214.43
2018-02-20T12:52:58.597Z,101218.26
2018-02-20T12:55:25.087Z,101209.64
2018-02-20T12:57:51.056Z,101218.98
2018-02-20T13:00:17.016Z,101219.96
2018-02-20T13:02:43.015Z,101214.83
2018-02-20T13:05:08.988Z,101215.73
2018-02-20T13:07:34.960Z,101208.16
2018-02-20T13:10:00.941Z,101206.57
2018-02-20T13:12:26.912Z,101204.92
2018-02-20T13:14:52.896Z,101202.02
2018-02-20T13:17:18.859Z,101198.27
2018-02-20T13:19:44.836Z,101193.94
2018-02-20T13:22:10.955Z,101191.83
2018-02-20T13:24:36.963Z,101196.14
2018-02-20T13:27:02.935Z,101189.56
2018-02-20T13:29:28.903Z,101192.98
2018-02-20T13:31:54.879Z,101187.16
2018-02-20T13:34:20.837Z,101194.60
2018-02-20T13:36:46.831Z,101182.56
2018-02-20T13:39:12.789Z,101189.41
2018-02-20T13:41:38.734Z,101189.19
2018-02-20T13:44:04.694Z,101196.92
2018-02-20T13:46:30.667Z,101189.54
2018-02-20T13:48:56.638Z,101189.62
2018-02-20T13:51:22.602Z,101181.95
2018-02-20T13:53:48.588Z,101191.45
2018-02-20T13:56:14.573Z,101190.34
2018-02-20T13:58:40.545Z,101185.59
2018-02-20T14:01:06.507Z,101190.38
2018-02-20T14:03:32.471Z,101188.62
2018-02-20T14:05:58.438Z,101192.53
2018-02-20T14:08:24.735Z,101187.57
2018-02-20T14:10:50.735Z,101187.68
2018-02-20T14:13:16.686Z,101184.14
2018-02-20T14:15:42.699Z,101182.19
2018-02-20T14:18:08.654Z,101188.91
2018-02-20T14:20:34.646Z,101186.87
2018-02-20T14:23:00.627Z,101193.54
2018-02-20T14:25:26.810Z,101192.76
2018-02-20T14:27:52.763Z,101187.18
2018-02-20T14:30:18.755Z,101189.80
2018-02-20T14:32:44.714Z,101193.97
2018-02-20T14:35:10.733Z,101189.19
2018-02-20T14:37:36.681Z,101192.77
2018-02-20T14:40:02.637Z,101188.86
2018-02-20T14:42:28.619Z,101194.92
2018-02-20T14:44:54.579Z,101189.54
2018-02-20T14:47:20.563Z,101190.61
2018-02-20T14:49:46.545Z,101189.36
2018-02-20T14:52:12.541Z,101193.91
2018-02-20T14:54:38.526Z,101184.86
2018-02-20T14:57:04.489Z,101186.16
2018-02-20T14:59:30.463Z,101186.42
2018-02-20T15:01:56.468Z,101189.36
2018-02-20T15:04:22.562Z,101194.41
2018-02-20T15:06:48.542Z,101188.20
2018-02-20T15:09:14.543Z,101186.21
2018-02-20T15:11:40.504Z,101196.94
2018-02-20T15:14:06.498Z,101191.99
2018-02-20T15:16:32.451Z,101187.25
2018-02-20T15:18:58.431Z,101189.89
2018-02-20T15:21:24.382Z,101189.54
2018-02-20T15:23:50.333Z,101194.08
2018-02-20T15:26:16.321Z,101192.67
2018-02-20T15:28:42.533Z,101192.87
2018-02-20T15:31:08.498Z,101191.55
2018-02-20T15:33:34.540Z,101193.27
2018-02-20T15:36:00.518Z,101189.19
2018-02-20T15:38:26.463Z,101185.94
2018-02-20T15:40:52.432Z,101190.21
2018-02-20T15:43:18.406Z,101193.17
2018-02-20T15:45:44.359Z,101195.34
2018-02-20T15:48:10.394Z,101200.83
2018-02-20T15:50:36.345Z,101188.48
2018-02-20T15:53:02.327Z,101192.90
2018-02-20T15:55:28.296Z,101191.94
2018-02-20T15:57:54.289Z,101198.70
2018-02-20T16:00:20.231Z,101200.95
2018-02-20T16:02:46.201Z,101201.37
2018-02-20T16:05:12.170Z,101203.84
2018-02-20T16:07:38.220Z,101208.77
2018-02-20T16:10:04.174Z,101216.47
2018-02-20T16:12:30.414Z,101213.18
2018-02-20T16:14:56.378Z,101226.28
2018-02-20T16:17:22.342Z,101222.14
2018-02-20T16:19:48.384Z,101228.62
2018-02-20T16:22:14.373Z,101227.08
2018-02-20T16:24:40.314Z,101231.31
2018-02-20T16:27:06.308Z,101236.37
2018-02-20T16:29:32.293Z,101237.73
2018-02-20T16:31:58.252Z,101247.09
2018-02-20T16:34:24.234Z,101241.64
2018-02-20T16:36:50.174Z,101248.33
2018-02-20T16:39:16.138Z,101249.09
2018-02-20T16:41:42.100Z,101254.32
2018-02-20T16:44:08.183Z,101255.89
2018-02-20T16:46:34.173Z,101253.42
2018-02-20T16:49:00.155Z,101259.36
2018-02-20T16:51:26.122Z,101265.05
2018-02-20T16:53:52.274Z,101262.79
2018-02-20T16:56:18.248Z,101271.53
2018-02-20T16:58:44.251Z,101266.58
2018-02-20T17:01:10.270Z,101268.31
2018-02-20T17:03:36.214Z,101276.86
2018-02-20T17:06:02.190Z,101279.08
2018-02-20T17:08:28.178Z,101284.29
2018-02-20T17:10:54.134Z,101284.92
2018-02-20T17:13:20.091Z,101288.81
2018-02-20T17:15:46.056Z,101302.78
2018-02-20T17:18:12.023Z,101295.36
2018-02-20T17:20:38.028Z,101301.27
2018-02-20T17:23:03.986Z,101297.61
2018-02-20T17:25:29.935Z,101304.59
2018-02-20T17:27:55.925Z,101308.97
2018-02-20T17:30:21.898Z,101315.00
2018-02-20T17:32:47.861Z,101313.22
2018-02-20T17:35:13.827Z,101318.30
2018-02-20T17:37:39.792Z,101318.66
2018-02-20T17:40:05.742Z,101317.91
2018-02-20T17:42:31.716Z,101322.89
2018-02-20T17:44:57.679Z,101322.45
2018-02-20T17:47:23.634Z,101325.81
2018-02-20T17:49:49.613Z,101329.36
2018-02-20T17:52:15.569Z,101334.73
2018-02-20T17:54:41.564Z,101337.11
2018-02-20T17:57:07.537Z,101334.58
2018-02-20T17:59:33.524Z,101338.55
2018-02-20T18:01:59.463Z,101339.85
2018-02-20T18:04:25.468Z,101341.66
2018-02-20T18:06:51.472Z,101351.97
2018-02-20T18:09:17.550Z,101352.45
2018-02-20T18:11:43.520Z,101355.27
2018-02-20T18:14:09.493Z,101355.14
2018-02-20T18:16:35.479Z,101360.13
2018-02-20T18:19:01.481Z,101362.47
2018-02-20T18:21:27.429Z,101369.88
2018-02-20T18:23:53.416Z,101373.26
2018-02-20T18:26:19.447Z,101373.26
2018-02-20T18:28:45.386Z,101385.45
2018-02-20T18:31:11.416Z,101381.25
2018-02-20T18:33:37.392Z,101377.16
2018-02-20T18:36:03.380Z,101388.90
2018-02-20T18:38:29.347Z,101385.06
2018-02-20T18:40:55.356Z,101386.97
2018-02-20T18:43:21.338Z,101399.61
2018-02-20T18:45:47.358Z,101395.62
2018-02-20T18:48:13.320Z,101396.37
2018-02-20T18:50:39.287Z,101403.61
2018-02-20T18:53:05.271Z,101401.35
2018-02-20T18:55:31.260Z,101402.59
2018-02-20T18:57:57.325Z,101406.22
2018-02-20T19:00:23.331Z,101403.05
2018-02-20T19:02:49.308Z,101405.73
2018-02-20T19:05:15.266Z,101405.02
2018-02-20T19:07:41.243Z,101410.91
2018-02-20T19:10:07.369Z,101410.37
2018-02-20T19:12:33.336Z,101411.52
2018-02-20T19:14:59.328Z,101414.06
2018-02-20T19:17:25.283Z,101413.60
2018-02-20T19:19:51.266Z,101412.66
2018-02-20T19:22:17.224Z,101411.12
2018-02-20T19:24:43.196Z,101417.88
2018-02-20T19:27:09.183Z,101419.02
2018-02-20T19:29:35.180Z,101420.70
2018-02-20T19:32:01.156Z,101423.72
2018-02-20T19:34:27.117Z,101430.02
2018-02-20T19:36:53.071Z,101438.05
2018-02-20T19:39:19.037Z,101436.64
2018-02-20T19:41:45.054Z,101436.57
2018-02-20T19:44:11.060Z,101445.98
2018-02-20T19:46:37.035Z,101448.86
2018-02-20T19:49:03.202Z,101449.04
2018-02-20T19:51:29.188Z,101452.59
2018-02-20T19:53:55.152Z,101462.11
2018-02-20T19:56:21.118Z,101462.84
2018-02-20T19:58:47.089Z,101458.95
2018-02-20T20:01:13.062Z,101458.17
2018-02-20T20:03:39.053Z,101461.67
2018-02-20T20:06:05.049Z,101452.47
2018-02-20T20:08:31.002Z,101455.18
2018-02-20T20:10:56.970Z,101456.95
2018-02-20T20:13:22.958Z,101453.00
2018-02-20T20:15:48.930Z,101460.80
2018-02-20T20:18:14.968Z,101462.65
2018-02-20T20:20:47.935Z,101467.77
2018-02-20T20:23:06.936Z,101469.23
2018-02-20T20:25:32.908Z,101463.02
2018-02-20T20:27:58.931Z,101466.86
2018-02-20T20:30:24.893Z,101476.23
2018-02-20T20:32:50.877Z,101476.58
2018-02-20T20:35:16.965Z,101476.63
2018-02-20T20:37:42.994Z,101475.25
2018-02-20T20:40:08.981Z,101481.17
2018-02-20T20:42:34.933Z,101475.30
2018-02-20T20:45:00.911Z,101484.05
2018-02-20T20:47:26.906Z,101490.73
2018-02-20T20:49:52.922Z,101493.25
2018-02-20T20:52:18.885Z,101495.34
2018-02-20T20:54:44.883Z,101497.23
2018-02-20T20:57:11.063Z,101501.87
2018-02-20T20:59:37.051Z,101508.28
2018-02-20T21:02:03.025Z,101504.02
2018-02-20T21:04:28.997Z,101518.68
2018-02-20T21:06:54.957Z,101517.20
2018-02-20T21:09:20.932Z,101518.22
2018-02-20T21:11:46.912Z,101521.58
2018-02-20T21:14:12.886Z,101518.19
2018-02-20T21:16:38.841Z,101519.55
2018-02-20T21:19:04.787Z,101515.13
2018-02-20T21:21:30.758Z,101516.08
2018-02-20T21:23:56.837Z,101519.01
2018-02-20T21:26:22.813Z,101525.19
2018-02-20T21:28:48.778Z,101521.16
2018-02-20T21:31:14.824Z,101523.27
2018-02-20T21:33:40.804Z,101526.78
2018-02-20T21:36:06.786Z,101526.92
2018-02-20T21:38:32.808Z,101525.20
2018-02-20T21:40:58.843Z,101528.19
2018-02-20T21:43:24.878Z,101531.41
2018-02-20T21:45:50.893Z,101536.33
2018-02-20T21:48:16.858Z,101542.87
2018-02-20T21:50:42.816Z,101549.61
2018-02-20T21:53:09.597Z,101554.57
2018-02-20T21:55:35.610Z,101551.59
2018-02-20T21:58:01.521Z,101552.30
2018-02-20T22:00:27.512Z,101557.67
2018-02-20T22:02:53.447Z,101563.26
2018-02-20T22:05:19.422Z,101561.43
2018-02-20T22:07:45.480Z,101565.66
2018-02-20T22:10:11.781Z,101565.31
2018-02-20T22:12:37.737Z,101561.43
2018-02-20T22:15:03.690Z,101563.20
2018-02-20T22:17:29.648Z,101566.45
2018-02-20T22:19:55.622Z,101566.47
2018-02-20T22:22:21.586Z,101568.62
2018-02-20T22:24:47.628Z,101563.16
2018-02-20T22:27:13.607Z,101571.49
2018-02-20T22:29:39.554Z,101567.16
2018-02-20T22:32:05.543Z,101573.08
2018-02-20T22:34:31.510Z,101574.83
2018-02-20T22:36:57.478Z,101571.30
2018-02-20T22:39:23.448Z,101572.03
2018-02-20T22:41:49.422Z,101577.79
2018-02-20T22:44:15.462Z,101577.88
2018-02-20T22:46:41.420Z,101588.44
2018-02-20T22:49:07.402Z,101591.73
2018-02-20T22:51:33.396Z,101593.95
2018-02-20T22:53:59.391Z,101592.71
2018-02-20T22:56:25.330Z,101597.12
2018-02-20T22:58:51.336Z,101595.87
2018-02-20T23:01:17.289Z,101608.92
2018-02-20T23:03:43.268Z,101614.81
2018-02-20T23:06:09.238Z,101618.34
2018-02-20T23:08:35.211Z,101627.55
2018-02-20T23:11:01.161Z,101634.86
2018-02-20T23:13:27.129Z,101643.73
2018-02-20T23:15:53.097Z,101638.22
2018-02-20T23:18:19.094Z,101643.36
2018-02-20T23:20:45.053Z,101643.19
2018-02-20T23:23:11.026Z,101644.09
2018-02-20T23:25:37.163Z,101648.53
2018-02-20T23:28:03.134Z,101650.92
2018-02-20T23:30:29.140Z,101654.22
2018-02-20T23:32:55.136Z,101657.86
2018-02-20T23:35:21.100Z,101659.31
2018-02-20T23:37:47.065Z,101656.47
2018-02-20T23:40:13.048Z,101663.55
2018-02-20T23:42:39.044Z,101664.63
2018-02-20T23:45:06.119Z,101667.19
2018-02-20T23:47:32.111Z,101658.59
2018-02-20T23:49:58.116Z,101667.98
2018-02-20T23:52:24.062Z,101673.73
2018-02-20T23:54:50.006Z,101675.64
2018-02-20T23:57:15.961Z,101680.85
2018-02-20T23:59:41.923Z,101684.31
